createdAt,value
2022-08-19T00:01:26.289Z,74.20
2022-08-19T00:05:14.125Z,74.30
2022-08-19T00:08:57.360Z,74.10
2022-08-19T00:12:43.911Z,74.20
2022-08-19T00:16:29.268Z,74.30
2022-08-19T00:20:13.972Z,74.30
2022-08-19T00:23:59.323Z,74.60
2022-08-19T00:27:41.664Z,74.40
2022-08-19T00:31:24.010Z,74.60
2022-08-19T00:35:06.818Z,74.60
2022-08-19T00:38:49.704Z,74.70
2022-08-19T00:42:32.003Z,74.90
2022-08-19T00:46:14.169Z,74.80
2022-08-19T00:49:59.313Z,74.70
2022-08-19T00:53:41.726Z,74.70
2022-08-19T00:57:37.842Z,74.50
2022-08-19T01:01:19.920Z,75.00
2022-08-19T01:05:05.767Z,74.40
2022-08-19T01:08:49.971Z,74.40
2022-08-19T01:12:32.627Z,74.40
2022-08-19T01:16:15.446Z,74.30
2022-08-19T01:19:57.458Z,74.30
2022-08-19T01:23:45.181Z,74.30
2022-08-19T01:27:27.252Z,74.30
2022-08-19T01:31:28.010Z,74.30
2022-08-19T01:35:11.839Z,75.10
2022-08-19T01:39:10.097Z,74.50
2022-08-19T01:42:54.017Z,75.50
2022-08-19T01:46:36.545Z,74.60
2022-08-19T01:50:18.580Z,74.70
2022-08-19T01:54:03.206Z,74.70
2022-08-19T01:57:53.043Z,75.00
2022-08-19T02:01:36.260Z,75.80
2022-08-19T02:05:19.560Z,75.50
2022-08-19T02:09:02.319Z,75.50
2022-08-19T02:12:44.914Z,75.70
2022-08-19T02:16:27.116Z,75.80
2022-08-19T02:20:09.934Z,75.80
2022-08-19T02:23:52.138Z,75.80
2022-08-19T02:27:34.887Z,75.70
2022-08-19T02:31:20.162Z,75.60
2022-08-19T02:35:03.010Z,75.50
2022-08-19T02:38:55.731Z,75.40
2022-08-19T02:42:37.955Z,75.30
2022-08-19T02:46:24.162Z,75.50
2022-08-19T02:50:06.930Z,75.50
2022-08-19T02:53:49.216Z,75.40
2022-08-19T02:57:32.880Z,75.20
2022-08-19T03:01:28.304Z,75.30
2022-08-19T03:05:15.739Z,75.50
2022-08-19T03:08:58.206Z,75.50
2022-08-19T03:12:41.001Z,75.20
2022-08-19T03:16:25.618Z,75.20
2022-08-19T03:20:08.243Z,75.20
2022-08-19T03:23:50.563Z,75.10
2022-08-19T03:27:34.778Z,75.10
2022-08-19T03:31:42.129Z,75.00
2022-08-19T03:35:21.728Z,75.00
2022-08-19T03:39:04.260Z,74.90
2022-08-19T03:42:48.781Z,74.90
2022-08-19T03:46:34.266Z,74.90
2022-08-19T03:50:17.004Z,74.80
2022-08-19T03:54:01.113Z,74.70
2022-08-19T03:57:43.257Z,74.60
2022-08-19T04:01:34.879Z,74.70
2022-08-19T04:05:17.887Z,74.60
2022-08-19T04:09:02.340Z,74.50
2022-08-19T04:12:44.432Z,74.60
2022-08-19T04:16:31.633Z,74.50
2022-08-19T04:20:17.323Z,74.50
2022-08-19T04:23:59.412Z,74.40
2022-08-19T04:27:42.788Z,74.40
2022-08-19T04:31:28.812Z,74.30
2022-08-19T04:35:16.953Z,74.20
2022-08-19T04:39:06.349Z,74.00
2022-08-19T04:42:48.361Z,73.90
2022-08-19T04:46:40.337Z,73.80
2022-08-19T04:50:33.099Z,73.70
2022-08-19T04:54:31.015Z,73.50
2022-08-19T04:58:18.618Z,73.40
2022-08-19T05:02:00.612Z,72.90
2022-08-19T05:05:44.873Z,72.80
2022-08-19T05:09:27.773Z,72.70
2022-08-19T05:13:10.923Z,72.50
2022-08-19T05:17:06.478Z,72.50
2022-08-19T05:21:13.335Z,72.50
2022-08-19T05:25:11.832Z,72.40
2022-08-19T05:28:56.189Z,72.40
2022-08-19T05:32:38.758Z,72.30
2022-08-19T05:36:21.184Z,72.30
2022-08-19T05:40:05.346Z,72.20
2022-08-19T05:43:47.541Z,72.20
2022-08-19T05:47:29.713Z,72.20
2022-08-19T05:51:12.199Z,72.30
2022-08-19T05:54:57.029Z,72.30
2022-08-19T05:58:39.729Z,72.30
2022-08-19T06:02:21.863Z,72.40
2022-08-19T06:06:08.458Z,72.40
2022-08-19T06:09:59.921Z,72.50
2022-08-19T06:13:43.336Z,72.40
2022-08-19T06:17:27.094Z,72.60
2022-08-19T06:21:09.179Z,72.60
2022-08-19T06:24:53.765Z,72.20
2022-08-19T06:28:35.962Z,71.40
2022-08-19T06:32:19.938Z,70.90
2022-08-19T06:36:01.978Z,70.60
2022-08-19T06:39:45.810Z,69.50
2022-08-19T06:43:29.095Z,68.90
2022-08-19T06:47:23.870Z,68.20
2022-08-19T06:51:10.700Z,67.50
2022-08-19T06:54:56.520Z,66.90
2022-08-19T06:58:39.285Z,66.40
2022-08-19T07:02:22.092Z,65.60
2022-08-19T07:06:41.160Z,64.70
2022-08-19T07:10:16.204Z,61.60
2022-08-19T07:14:01.463Z,62.60
2022-08-19T07:17:46.060Z,61.40
2022-08-19T07:21:33.454Z,61.00
2022-08-19T07:25:22.641Z,59.20
2022-08-19T07:29:17.918Z,59.40
2022-08-19T07:33:03.568Z,58.90
2022-08-19T07:36:47.136Z,58.40
2022-08-19T07:40:29.596Z,57.60
2022-08-19T07:44:18.379Z,56.30
2022-08-19T07:52:12.443Z,51.00
2022-08-19T07:55:54.826Z,51.60
2022-08-19T07:59:38.830Z,51.50
2022-08-19T08:03:43.890Z,49.50
2022-08-19T08:07:50.174Z,48.50
2022-08-19T08:11:34.797Z,47.00
2022-08-19T08:15:26.882Z,45.90
2022-08-19T08:19:25.305Z,44.90
2022-08-19T08:23:28.494Z,43.10
2022-08-19T08:27:12.364Z,43.10
2022-08-19T08:30:55.808Z,42.50
2022-08-19T08:34:38.302Z,41.60
2022-08-19T08:38:20.998Z,39.90
2022-08-19T08:42:28.768Z,38.70
2022-08-19T08:46:34.611Z,36.50
2022-08-19T08:50:39.184Z,36.60
2022-08-19T08:54:55.465Z,36.10
2022-08-19T08:58:54.401Z,34.90
2022-08-19T09:02:37.444Z,34.90
2022-08-19T09:06:40.706Z,35.90
2022-08-19T09:10:44.295Z,34.20
2022-08-19T09:14:52.068Z,33.20
2022-08-19T09:18:49.989Z,31.30
2022-08-19T09:22:32.768Z,32.60
2022-08-19T09:26:17.990Z,33.00
2022-08-19T09:30:06.801Z,31.00
2022-08-19T09:33:49.672Z,30.00
2022-08-19T09:37:35.777Z,30.50
2022-08-19T09:41:21.493Z,30.30
2022-08-19T09:45:04.999Z,29.70
2022-08-19T09:48:49.441Z,29.50
2022-08-19T09:52:32.435Z,29.00
2022-08-19T09:56:15.252Z,29.10
2022-08-19T10:00:02.308Z,29.10
2022-08-19T10:03:44.248Z,29.20
2022-08-19T10:07:28.967Z,29.50
2022-08-19T10:11:28.508Z,29.30
2022-08-19T10:15:29.184Z,29.30
2022-08-19T10:19:11.554Z,29.30
2022-08-19T10:22:53.534Z,28.50
2022-08-19T10:26:39.271Z,28.70
2022-08-19T10:30:21.867Z,28.50
2022-08-19T10:34:07.007Z,28.30
2022-08-19T10:37:57.549Z,28.70
2022-08-19T10:41:44.316Z,28.50
2022-08-19T10:45:28.275Z,28.30
2022-08-19T10:49:12.228Z,27.70
2022-08-19T10:52:54.211Z,27.70
2022-08-19T10:56:53.513Z,27.80
2022-08-19T11:00:35.737Z,27.80
2022-08-19T11:04:21.642Z,28.10
2022-08-19T11:08:18.122Z,28.60
2022-08-19T11:12:10.373Z,29.80
2022-08-19T11:16:06.769Z,30.60
2022-08-19T11:19:50.412Z,30.90
2022-08-19T11:23:34.420Z,31.80
2022-08-19T11:27:17.003Z,32.20
2022-08-19T11:30:59.833Z,32.10
2022-08-19T11:34:41.972Z,31.50
2022-08-19T11:38:23.912Z,30.80
2022-08-19T11:42:27.497Z,30.40
2022-08-19T11:46:12.983Z,29.50
2022-08-19T11:49:55.282Z,28.90
2022-08-19T11:53:38.222Z,28.30
2022-08-19T11:57:20.807Z,27.60
2022-08-19T12:01:06.508Z,27.40
2022-08-19T12:04:53.377Z,26.90
2022-08-19T12:08:35.960Z,26.80
2022-08-19T12:12:18.209Z,26.80
2022-08-19T12:16:00.731Z,26.70
2022-08-19T12:19:42.717Z,26.60
2022-08-19T12:23:24.630Z,26.60
2022-08-19T12:27:12.562Z,26.70
2022-08-19T12:30:57.220Z,26.80
2022-08-19T12:34:39.789Z,26.30
2022-08-19T12:38:25.530Z,27.10
2022-08-19T12:42:09.262Z,25.60
2022-08-19T12:45:51.815Z,25.50
2022-08-19T12:49:53.506Z,25.60
2022-08-19T12:53:39.304Z,25.50
2022-08-19T12:57:22.116Z,25.20
2022-08-19T13:01:13.571Z,24.50
2022-08-19T13:04:55.520Z,24.00
2022-08-19T13:08:39.551Z,24.60
2022-08-19T13:12:25.004Z,24.00
2022-08-19T13:16:16.581Z,25.10
2022-08-19T13:19:58.681Z,23.20
2022-08-19T13:23:42.131Z,22.30
2022-08-19T13:27:24.137Z,22.70
2022-08-19T13:31:25.267Z,22.90
2022-08-19T13:35:07.311Z,22.50
2022-08-19T13:38:49.267Z,23.00
2022-08-19T13:42:32.446Z,23.30
2022-08-19T13:46:15.056Z,23.00
2022-08-19T13:49:57.464Z,22.90
2022-08-19T13:53:41.033Z,22.90
2022-08-19T13:57:23.379Z,23.20
2022-08-19T14:01:06.495Z,23.60
2022-08-19T14:04:48.592Z,24.40
2022-08-19T14:08:33.407Z,25.20
2022-08-19T14:12:15.427Z,26.30
2022-08-19T14:16:12.185Z,27.40
2022-08-19T14:20:10.782Z,28.30
2022-08-19T14:23:53.939Z,28.70
2022-08-19T14:27:36.965Z,29.20
2022-08-19T14:31:20.265Z,29.70
2022-08-19T14:35:04.205Z,30.20
2022-08-19T14:38:46.976Z,30.50
2022-08-19T14:42:28.992Z,30.90
2022-08-19T14:46:11.611Z,31.40
2022-08-19T14:49:54.628Z,31.70
2022-08-19T14:53:36.991Z,31.90
2022-08-19T14:57:18.952Z,32.20
2022-08-19T15:01:01.545Z,32.30
2022-08-19T15:04:44.941Z,32.40
2022-08-19T15:08:28.097Z,32.60
2022-08-19T15:12:10.215Z,32.90
2022-08-19T15:15:52.824Z,32.90
2022-08-19T15:19:36.976Z,33.10
2022-08-19T15:23:20.104Z,33.30
2022-08-19T15:27:02.764Z,33.60
2022-08-19T15:30:45.019Z,33.90
2022-08-19T15:34:27.020Z,33.90
2022-08-19T15:38:09.668Z,34.20
2022-08-19T15:41:51.649Z,34.30
2022-08-19T15:45:33.851Z,34.40
2022-08-19T15:49:18.281Z,34.50
2022-08-19T15:53:07.763Z,34.50
2022-08-19T15:57:09.899Z,34.20
2022-08-19T16:01:12.674Z,34.40
2022-08-19T16:05:13.864Z,34.50
2022-08-19T16:09:02.068Z,34.40
2022-08-19T16:12:44.004Z,34.80
2022-08-19T16:16:31.083Z,35.00
2022-08-19T16:20:16.950Z,35.40
2022-08-19T16:24:02.643Z,35.70
2022-08-19T16:28:06.593Z,36.00
2022-08-19T16:31:47.097Z,36.20
2022-08-19T16:35:29.020Z,36.50
2022-08-19T16:39:15.134Z,36.70
2022-08-19T16:42:57.060Z,37.30
2022-08-19T16:46:41.678Z,37.70
2022-08-19T16:50:39.315Z,38.00
2022-08-19T16:54:30.770Z,38.50
2022-08-19T16:58:14.525Z,38.90
2022-08-19T17:01:56.515Z,39.20
2022-08-19T17:05:45.432Z,39.20
2022-08-19T17:09:27.337Z,39.20
2022-08-19T17:13:16.259Z,38.90
2022-08-19T17:16:58.206Z,38.50
2022-08-19T17:20:42.052Z,38.40
2022-08-19T17:24:24.009Z,38.40
2022-08-19T17:28:11.679Z,38.30
2022-08-19T17:31:53.592Z,38.40
2022-08-19T17:35:36.714Z,38.50
2022-08-19T17:39:18.935Z,38.60
2022-08-19T17:43:01.815Z,38.60
2022-08-19T17:46:45.153Z,38.70
2022-08-19T17:50:27.939Z,38.60
2022-08-19T17:54:14.039Z,38.60
2022-08-19T17:57:56.160Z,38.60
2022-08-19T18:01:52.674Z,38.70
2022-08-19T18:05:42.210Z,39.10
2022-08-19T18:09:41.313Z,40.00
2022-08-19T18:13:24.011Z,40.30
2022-08-19T18:17:10.812Z,40.30
2022-08-19T18:20:53.067Z,41.00
2022-08-19T18:24:38.811Z,40.90
2022-08-19T18:28:20.662Z,41.50
2022-08-19T18:32:02.608Z,40.90
2022-08-19T18:35:47.229Z,41.40
2022-08-19T18:39:47.899Z,41.80
2022-08-19T18:43:48.256Z,42.00
2022-08-19T18:47:48.843Z,42.20
2022-08-19T18:51:32.171Z,42.20
2022-08-19T18:55:16.503Z,42.50
2022-08-19T18:59:00.134Z,42.70
2022-08-19T19:02:42.124Z,42.80
2022-08-19T19:06:27.819Z,42.90
2022-08-19T19:10:09.646Z,43.30
2022-08-19T19:13:52.225Z,42.80
2022-08-19T19:17:34.257Z,43.10
2022-08-19T19:21:16.216Z,43.60
2022-08-19T19:24:59.563Z,44.20
2022-08-19T19:28:48.176Z,44.70
2022-08-19T19:32:39.035Z,45.00
2022-08-19T19:36:22.067Z,45.20
2022-08-19T19:40:04.583Z,45.60
2022-08-19T19:43:46.694Z,45.40
2022-08-19T19:47:30.278Z,45.60
2022-08-19T19:51:14.226Z,45.70
2022-08-19T19:54:57.013Z,45.50
2022-08-19T19:58:39.081Z,45.40
2022-08-19T20:02:22.123Z,45.40
2022-08-19T20:06:04.289Z,45.50
2022-08-19T20:09:59.231Z,45.40
2022-08-19T20:13:42.136Z,45.50
2022-08-19T20:17:24.024Z,45.40
2022-08-19T20:21:06.255Z,45.60
2022-08-19T20:24:48.746Z,45.70
2022-08-19T20:28:31.933Z,45.90
2022-08-19T20:32:14.296Z,46.00
2022-08-19T20:35:56.213Z,46.20
2022-08-19T20:39:38.277Z,46.50
2022-08-19T20:43:20.588Z,46.70
2022-08-19T20:47:04.078Z,47.00
2022-08-19T20:50:47.750Z,47.30
2022-08-19T20:54:29.875Z,47.60
2022-08-19T20:58:13.588Z,48.00
2022-08-19T21:01:55.616Z,48.40
2022-08-19T21:05:37.614Z,48.60
2022-08-19T21:09:19.580Z,49.00
2022-08-19T21:13:03.868Z,49.20
2022-08-19T21:16:46.501Z,49.40
2022-08-19T21:20:28.503Z,49.50
2022-08-19T21:24:10.595Z,49.70
2022-08-19T21:27:52.576Z,49.80
2022-08-19T21:31:35.130Z,50.10
2022-08-19T21:35:17.096Z,50.40
2022-08-19T21:38:59.044Z,50.50
2022-08-19T21:42:41.043Z,50.70
2022-08-19T21:46:22.959Z,50.80
2022-08-19T21:50:05.987Z,50.90
2022-08-19T21:53:47.941Z,51.20
2022-08-19T21:57:30.912Z,51.30
2022-08-19T22:01:13.041Z,51.40
2022-08-19T22:04:55.145Z,51.50
2022-08-19T22:08:37.181Z,51.60
2022-08-19T22:12:34.076Z,51.70
2022-08-19T22:16:18.361Z,52.50
2022-08-19T22:20:01.158Z,52.00
2022-08-19T22:23:44.434Z,52.10
2022-08-19T22:27:26.680Z,52.10
2022-08-19T22:31:09.701Z,52.30
2022-08-19T22:34:51.881Z,52.50
2022-08-19T22:38:34.836Z,52.70
2022-08-19T22:42:21.127Z,52.80
2022-08-19T22:46:03.416Z,53.30
2022-08-19T22:49:45.550Z,52.90
2022-08-19T22:53:27.481Z,53.00
2022-08-19T22:57:11.376Z,53.00
2022-08-19T23:00:53.324Z,53.20
2022-08-19T23:04:36.060Z,53.40
2022-08-19T23:08:17.956Z,53.60
2022-08-19T23:12:00.626Z,53.80
2022-08-19T23:15:44.072Z,54.00
2022-08-19T23:19:26.487Z,54.20
2022-08-19T23:23:11.728Z,54.30
2022-08-19T23:27:12.482Z,54.70
2022-08-19T23:31:02.319Z,54.80
2022-08-19T23:34:44.773Z,55.10
2022-08-19T23:38:29.147Z,55.40
2022-08-19T23:42:12.440Z,55.50
2022-08-19T23:45:57.396Z,55.80
2022-08-19T23:49:39.769Z,55.80
2022-08-19T23:53:21.988Z,56.00
2022-08-19T23:57:04.153Z,56.20
